createdAt,value
2017-01-28T00:00:49.430Z,1021.5
2017-01-28T00:01:52.375Z,1021.5
2017-01-28T00:02:55.819Z,1021.5
2017-01-28T00:03:58.759Z,1021.5
2017-01-28T00:05:02.036Z,1021.5
2017-01-28T00:06:04.979Z,1021.6
2017-01-28T00:07:07.928Z,1021.5
2017-01-28T00:08:11.034Z,1021.5
2017-01-28T00:09:13.974Z,1021.6
2017-01-28T00:10:17.419Z,1021.5
2017-01-28T00:11:20.203Z,1021.5
2017-01-28T00:12:23.364Z,1021.5
2017-01-28T00:13:26.306Z,1021.5
2017-01-28T00:15:32.666Z,1021.5
2017-01-28T00:16:35.610Z,1021.4
2017-01-28T00:17:38.881Z,1021.4
2017-01-28T00:18:41.830Z,1021.4
2017-01-28T00:19:45.274Z,1021.4
2017-01-28T00:20:48.220Z,1021.4
2017-01-28T00:21:51.167Z,1021.4
2017-01-28T00:22:54.441Z,1021.4
2017-01-28T00:23:57.390Z,1021.4
2017-01-28T00:25:00.330Z,1021.4
2017-01-28T00:26:03.774Z,1021.4
2017-01-28T00:27:06.557Z,1021.4
2017-01-28T00:28:10.002Z,1021.4
2017-01-28T00:29:12.616Z,1021.4
2017-01-28T00:30:15.892Z,1021.3
2017-01-28T00:31:18.837Z,1021.4
2017-01-28T00:32:22.284Z,1021.4
2017-01-28T00:33:25.233Z,1021.3
2017-01-28T00:34:28.174Z,1021.3
2017-01-28T00:35:31.621Z,1021.3
2017-01-28T00:36:34.571Z,1021.3
2017-01-28T00:37:37.518Z,1021.3
2017-01-28T00:38:40.463Z,1021.3
2017-01-28T00:39:43.914Z,1021.3
2017-01-28T00:40:46.859Z,1021.3
2017-01-28T00:41:49.800Z,1021.3
2017-01-28T00:42:52.747Z,1021.3
2017-01-28T00:44:59.100Z,1021.3
2017-01-28T00:46:02.042Z,1021.3
2017-01-28T00:47:05.486Z,1021.3
2017-01-28T00:48:08.434Z,1021.3
2017-01-28T00:49:11.725Z,1021.3
2017-01-28T00:50:14.829Z,1021.3
2017-01-28T00:51:17.771Z,1021.3
2017-01-28T00:52:20.715Z,1021.3
2017-01-28T00:53:23.660Z,1021.3
2017-01-28T00:54:27.103Z,1021.3
2017-01-28T00:55:30.040Z,1021.3
2017-01-28T00:56:32.986Z,1021.2
2017-01-28T00:57:35.962Z,1021.2
2017-01-28T00:58:39.413Z,1021.3
2017-01-28T00:59:42.188Z,1021.2
2017-01-28T01:01:48.548Z,1021.2
2017-01-28T01:02:51.493Z,1021.2
2017-01-28T01:03:54.441Z,1021.2
2017-01-28T01:04:57.895Z,1021.2
2017-01-28T01:06:00.836Z,1021.2
2017-01-28T01:07:03.813Z,1021.2
2017-01-28T01:08:07.261Z,1021.2
2017-01-28T01:09:10.041Z,1021.2
2017-01-28T01:10:13.319Z,1021.2
2017-01-28T01:11:16.431Z,1021.2
2017-01-28T01:12:19.375Z,1021.2
2017-01-28T01:13:22.343Z,1021.2
2017-01-28T01:14:25.313Z,1021.2
2017-01-28T01:15:28.755Z,1021.2
2017-01-28T01:16:31.905Z,1021.2
2017-01-28T01:17:34.850Z,1021.2
2017-01-28T01:18:37.795Z,1021.2
2017-01-28T01:19:40.741Z,1021.2
2017-01-28T01:20:44.200Z,1021.2
2017-01-28T01:21:47.150Z,1021.1
2017-01-28T01:22:50.119Z,1021.2
2017-01-28T01:23:53.054Z,1021.2
2017-01-28T01:24:56.330Z,1021.1
2017-01-28T01:25:59.270Z,1021.2
2017-01-28T01:27:02.714Z,1021.1
2017-01-28T01:28:05.686Z,1021.1
2017-01-28T01:29:08.630Z,1021.1
2017-01-28T01:30:11.731Z,1021.1
2017-01-28T01:31:14.669Z,1021.2
2017-01-28T01:33:20.851Z,1021.2
2017-01-28T01:34:23.796Z,1021.1
2017-01-28T01:35:27.239Z,1021.2
2017-01-28T01:36:30.226Z,1021.1
2017-01-28T01:37:33.180Z,1021
2017-01-28T01:38:36.129Z,1021.1
2017-01-28T01:39:39.406Z,1021
2017-01-28T01:40:42.347Z,1021
2017-01-28T01:42:48.706Z,1021
2017-01-28T01:43:51.515Z,1021
2017-01-28T01:44:54.961Z,1021
2017-01-28T01:45:57.903Z,1021
2017-01-28T01:47:00.843Z,1021
2017-01-28T01:48:04.124Z,1021
2017-01-28T01:49:06.901Z,1021
2017-01-28T01:50:10.355Z,1020.9
2017-01-28T01:51:13.126Z,1020.9
2017-01-28T01:52:16.570Z,1020.9
2017-01-28T01:53:19.520Z,1020.9
2017-01-28T01:55:25.371Z,1020.9
2017-01-28T01:56:28.816Z,1020.9
2017-01-28T01:57:31.762Z,1020.9
2017-01-28T01:58:34.752Z,1020.9
2017-01-28T01:59:37.695Z,1020.9
2017-01-28T02:00:41.138Z,1020.9
2017-01-28T02:01:43.910Z,1020.9
2017-01-28T02:02:47.362Z,1020.9
2017-01-28T02:03:50.301Z,1020.9
2017-01-28T02:04:53.577Z,1020.9
2017-01-28T02:05:56.520Z,1020.9
2017-01-28T02:06:59.469Z,1020.9
2017-01-28T02:08:02.416Z,1020.9
2017-01-28T02:09:05.861Z,1020.8
2017-01-28T02:11:11.768Z,1020.9
2017-01-28T02:12:14.709Z,1020.9
2017-01-28T02:13:17.986Z,1020.8
2017-01-28T02:14:20.929Z,1020.9
2017-01-28T02:15:23.869Z,1020.9
2017-01-28T02:16:27.312Z,1020.8
2017-01-28T02:17:30.254Z,1020.8
2017-01-28T02:18:33.194Z,1020.8
2017-01-28T02:19:36.641Z,1020.8
2017-01-28T02:20:39.606Z,1020.9
2017-01-28T02:21:42.382Z,1020.8
2017-01-28T02:22:45.658Z,1020.8
2017-01-28T02:23:48.597Z,1020.8
2017-01-28T02:24:52.036Z,1020.8
2017-01-28T02:25:54.978Z,1020.7
2017-01-28T02:26:57.918Z,1020.7
2017-01-28T02:28:00.863Z,1020.7
2017-01-28T02:29:04.140Z,1020.7
2017-01-28T02:30:07.421Z,1020.7
2017-01-28T02:31:10.370Z,1020.7
2017-01-28T02:32:13.316Z,1020.6
2017-01-28T02:33:16.261Z,1020.7
2017-01-28T02:34:19.709Z,1020.7
2017-01-28T02:35:22.653Z,1020.7
2017-01-28T02:36:25.596Z,1020.6
2017-01-28T02:37:28.536Z,1020.6
2017-01-28T02:38:32.005Z,1020.6
2017-01-28T02:40:37.861Z,1020.6
2017-01-28T02:42:44.216Z,1020.6
2017-01-28T02:43:47.157Z,1020.6
2017-01-28T02:44:50.105Z,1020.6
2017-01-28T02:45:53.548Z,1020.6
2017-01-28T02:46:56.490Z,1020.6
2017-01-28T02:47:59.453Z,1020.6
2017-01-28T02:49:02.399Z,1020.6
2017-01-28T02:50:05.842Z,1020.6
2017-01-28T02:51:08.613Z,1020.6
2017-01-28T02:52:11.895Z,1020.5
2017-01-28T02:53:14.923Z,1020.5
2017-01-28T02:55:21.281Z,1020.5
2017-01-28T02:56:24.268Z,1020.6
2017-01-28T02:57:27.214Z,1020.5
2017-01-28T02:58:30.164Z,1020.5
2017-01-28T02:59:33.641Z,1020.4
2017-01-28T03:00:36.585Z,1020.4
2017-01-28T03:01:39.533Z,1020.4
2017-01-28T03:02:42.474Z,1020.4
2017-01-28T03:03:45.930Z,1020.4
2017-01-28T03:04:48.880Z,1020.4
2017-01-28T03:05:51.665Z,1020.4
2017-01-28T03:06:55.120Z,1020.4
2017-01-28T03:07:58.088Z,1020.4
2017-01-28T03:09:01.042Z,1020.3
2017-01-28T03:10:04.003Z,1020.4
2017-01-28T03:11:07.459Z,1020.4
2017-01-28T03:12:10.413Z,1020.3
2017-01-28T03:14:16.274Z,1020.3
2017-01-28T03:15:19.730Z,1020.3
2017-01-28T03:16:22.680Z,1020.4
2017-01-28T03:17:25.629Z,1020.3
2017-01-28T03:18:28.578Z,1020.3
2017-01-28T03:19:32.032Z,1020.3
2017-01-28T03:20:34.985Z,1020.3
2017-01-28T03:21:37.936Z,1020.3
2017-01-28T03:22:40.893Z,1020.3
2017-01-28T03:23:44.348Z,1020.3
2017-01-28T03:24:47.136Z,1020.3
2017-01-28T03:25:50.087Z,1020.3
2017-01-28T03:26:53.539Z,1020.3
2017-01-28T03:27:56.488Z,1020.3
2017-01-28T03:28:59.436Z,1020.3
2017-01-28T03:30:02.412Z,1020.4
2017-01-28T03:31:05.873Z,1020.3
2017-01-28T03:32:08.844Z,1020.3
2017-01-28T03:33:11.627Z,1020.3
2017-01-28T03:34:15.083Z,1020.3
2017-01-28T03:35:18.031Z,1020.4
2017-01-28T03:36:20.984Z,1020.3
2017-01-28T03:37:23.939Z,1020.3
2017-01-28T03:38:27.390Z,1020.3
2017-01-28T03:39:30.170Z,1020.3
2017-01-28T03:40:33.117Z,1020.3
2017-01-28T03:41:36.574Z,1020.3
2017-01-28T03:42:39.524Z,1020.3
2017-01-28T03:43:42.482Z,1020.3
2017-01-28T03:44:45.437Z,1020.3
2017-01-28T03:45:48.728Z,1020.3
2017-01-28T03:47:55.092Z,1020.2
2017-01-28T03:48:58.045Z,1020.2
2017-01-28T03:50:01.025Z,1020.3
2017-01-28T03:51:03.981Z,1020.3
2017-01-28T03:52:06.931Z,1020.3
2017-01-28T03:53:10.216Z,1020.3
2017-01-28T03:54:13.162Z,1020.2
2017-01-28T03:55:16.613Z,1020.1
2017-01-28T03:56:19.568Z,1020.1
2017-01-28T03:57:22.519Z,1020.1
2017-01-28T03:58:25.472Z,1020.1
2017-01-28T03:59:28.925Z,1020.1
2017-01-28T04:00:31.902Z,1020.2
2017-01-28T04:01:34.856Z,1020.1
2017-01-28T04:02:37.806Z,1020.1
2017-01-28T04:03:40.764Z,1020.1
2017-01-28T04:05:47.127Z,1020.1
2017-01-28T04:06:50.082Z,1020.1
2017-01-28T04:07:53.538Z,1020.1
2017-01-28T04:08:56.485Z,1020.1
2017-01-28T04:09:59.457Z,1020.1
2017-01-28T04:11:02.744Z,1020.1
2017-01-28T04:12:05.713Z,1020.1
2017-01-28T04:13:08.863Z,1020.1
2017-01-28T04:14:11.816Z,1020.1
2017-01-28T04:15:14.597Z,1020.2
2017-01-28T04:16:18.052Z,1020.1
2017-01-28T04:17:21.000Z,1020.1
2017-01-28T04:19:27.364Z,1020.1
2017-01-28T04:20:30.312Z,1020.1
2017-01-28T04:21:33.267Z,1020.1
2017-01-28T04:22:36.216Z,1020.1
2017-01-28T04:23:39.668Z,1020.1
2017-01-28T04:24:42.619Z,1020.1
2017-01-28T04:25:45.561Z,1020.1
2017-01-28T04:26:48.507Z,1020
2017-01-28T04:27:51.797Z,1020
2017-01-28T04:28:54.581Z,1020
2017-01-28T04:29:57.896Z,1020
2017-01-28T04:31:00.849Z,1020
2017-01-28T04:32:03.808Z,1020
2017-01-28T04:33:07.117Z,1020.1
2017-01-28T04:35:13.477Z,1020
2017-01-28T04:36:16.429Z,1020.1
2017-01-28T04:37:19.381Z,1020
2017-01-28T04:38:22.333Z,1020.1
2017-01-28T04:39:25.283Z,1020.1
2017-01-28T04:40:28.765Z,1020
2017-01-28T04:41:31.718Z,1020
2017-01-28T04:42:34.665Z,1020
2017-01-28T04:43:37.613Z,1020.1
2017-01-28T04:44:41.069Z,1020
2017-01-28T04:45:44.025Z,1020.1
2017-01-28T04:46:46.981Z,1020
2017-01-28T04:47:49.978Z,1020
2017-01-28T04:48:52.931Z,1020
2017-01-28T04:49:56.386Z,1020.1
2017-01-28T04:50:59.332Z,1020.1
2017-01-28T04:52:02.286Z,1020
2017-01-28T04:53:05.238Z,1020
2017-01-28T04:54:08.713Z,1020
2017-01-28T04:55:11.830Z,1020.1
2017-01-28T04:56:14.613Z,1020.1
2017-01-28T04:57:17.571Z,1020.1
2017-01-28T04:58:21.036Z,1020
2017-01-28T04:59:23.818Z,1020.1
2017-01-28T05:00:26.771Z,1020
2017-01-28T05:01:30.228Z,1020.1
2017-01-28T05:03:36.088Z,1020.1
2017-01-28T05:05:42.288Z,1020
2017-01-28T05:06:45.269Z,1020
2017-01-28T05:08:51.631Z,1020
2017-01-28T05:17:15.949Z,1020.1
2017-01-28T05:18:19.404Z,1020.1
2017-01-28T05:19:22.357Z,1020
2017-01-28T05:20:25.305Z,1020.1
2017-01-28T05:21:28.256Z,1020.1
2017-01-28T05:22:31.708Z,1020.1
2017-01-28T05:23:34.660Z,1020.1
2017-01-28T05:24:37.609Z,1020.1
2017-01-28T05:25:40.896Z,1020.1
2017-01-28T05:26:43.852Z,1020.1
2017-01-28T05:27:46.801Z,1020
2017-01-28T05:28:49.758Z,1020.1
2017-01-28T05:29:53.045Z,1020.1
2017-01-28T05:30:55.835Z,1020.1
2017-01-28T05:31:59.288Z,1020.1
2017-01-28T05:33:02.239Z,1020.1
2017-01-28T05:34:05.190Z,1020.1
2017-01-28T05:35:08.479Z,1020.1
2017-01-28T05:36:11.286Z,1020.1
2017-01-28T05:37:14.232Z,1020.1
2017-01-28T05:38:17.519Z,1020.1
2017-01-28T05:39:20.473Z,1020.1
2017-01-28T05:40:23.931Z,1020
2017-01-28T05:41:26.909Z,1020.1
2017-01-28T05:42:29.863Z,1020.1
2017-01-28T05:43:32.815Z,1020.1
2017-01-28T05:44:35.762Z,1020.1
2017-01-28T05:45:39.219Z,1020.1
2017-01-28T05:46:42.171Z,1020.1
2017-01-28T05:47:45.123Z,1020.1
2017-01-28T05:48:48.078Z,1020.1
2017-01-28T05:49:51.544Z,1020.1
2017-01-28T05:50:54.499Z,1020.1
2017-01-28T05:51:57.472Z,1020.1
2017-01-28T05:53:00.421Z,1020.1
2017-01-28T05:54:03.368Z,1020.1
2017-01-28T05:56:09.733Z,1020.1
2017-01-28T05:57:12.686Z,1020.1
2017-01-28T05:58:15.661Z,1020.1
2017-01-28T05:59:19.117Z,1020.1
2017-01-28T06:00:22.073Z,1020.1
2017-01-28T06:01:25.012Z,1020.1
2017-01-28T06:02:27.963Z,1020
2017-01-28T06:03:31.416Z,1020.1
2017-01-28T06:04:34.368Z,1020.1
2017-01-28T06:05:37.319Z,1020
2017-01-28T06:06:40.338Z,1020.1
2017-01-28T06:07:43.295Z,1020
2017-01-28T06:08:46.748Z,1020
2017-01-28T06:10:52.612Z,1020
2017-01-28T06:11:55.567Z,1020
2017-01-28T06:12:59.019Z,1020
2017-01-28T06:14:01.970Z,1020
2017-01-28T06:15:04.923Z,1020
2017-01-28T06:16:07.892Z,1020
2017-01-28T06:17:11.009Z,1020.1
2017-01-28T06:18:13.969Z,1020.1
2017-01-28T06:19:17.092Z,1020.1
2017-01-28T06:20:20.046Z,1020.1
2017-01-28T06:21:23.500Z,1020.1
2017-01-28T06:23:29.358Z,1020.1
2017-01-28T06:24:32.321Z,1020.1
2017-01-28T06:25:35.776Z,1020
2017-01-28T06:26:38.724Z,1020.1
2017-01-28T06:27:41.508Z,1020
2017-01-28T06:28:44.966Z,1020.1
2017-01-28T06:29:47.917Z,1020
2017-01-28T06:30:50.866Z,1020.1
2017-01-28T06:31:54.152Z,1020
2017-01-28T06:32:56.932Z,1020.1
2017-01-28T06:33:59.906Z,1020.1
2017-01-28T06:35:03.364Z,1020.1
2017-01-28T06:36:06.326Z,1020.1
2017-01-28T06:37:09.277Z,1020.1
2017-01-28T06:38:12.232Z,1020.1
2017-01-28T06:39:15.688Z,1020.1
2017-01-28T06:40:18.645Z,1020.1
2017-01-28T06:41:21.596Z,1020.1
2017-01-28T06:42:24.545Z,1020.1
2017-01-28T06:43:27.595Z,1020.1
2017-01-28T06:44:30.549Z,1020.1
2017-01-28T06:45:34.004Z,1020
2017-01-28T06:46:36.955Z,1020
2017-01-28T06:47:39.907Z,1020.1
2017-01-28T06:48:42.866Z,1020.1
2017-01-28T06:49:46.325Z,1020.1
2017-01-28T06:50:49.274Z,1020
2017-01-28T06:51:52.226Z,1020
2017-01-28T06:52:55.173Z,1020
2017-01-28T06:53:58.467Z,1020
2017-01-28T06:55:01.416Z,1020
2017-01-28T06:56:04.398Z,1020.1
2017-01-28T06:57:07.349Z,1020
2017-01-28T06:58:10.834Z,1020.1
2017-01-28T06:59:13.619Z,1020.1
2017-01-28T07:00:16.568Z,1020.1
2017-01-28T07:01:20.026Z,1020.1
2017-01-28T07:03:25.882Z,1020.2
2017-01-28T07:04:28.836Z,1020.2
2017-01-28T07:05:31.828Z,1020.1
2017-01-28T07:06:35.288Z,1020.1
2017-01-28T07:07:38.240Z,1020.1
2017-01-28T07:08:41.188Z,1020.1
2017-01-28T07:09:44.139Z,1020.1
2017-01-28T07:10:47.088Z,1020.1
2017-01-28T07:11:50.543Z,1020.2
2017-01-28T07:12:53.500Z,1020.1
2017-01-28T07:13:56.471Z,1020.2
2017-01-28T07:14:59.421Z,1020.1
2017-01-28T07:16:02.875Z,1020.2
2017-01-28T07:18:08.701Z,1020.2
2017-01-28T07:20:14.769Z,1020.2
2017-01-28T07:21:17.726Z,1020.2
2017-01-28T07:22:21.182Z,1020.2
2017-01-28T07:23:24.133Z,1020.1
2017-01-28T07:25:29.997Z,1020.1
2017-01-28T07:26:33.458Z,1020.2
2017-01-28T07:27:36.414Z,1020.1
2017-01-28T07:28:39.368Z,1020.1
2017-01-28T07:29:42.313Z,1020.1
2017-01-28T07:30:45.262Z,1020.2
2017-01-28T07:31:48.717Z,1020.1
2017-01-28T07:32:51.669Z,1020.2
2017-01-28T07:33:54.452Z,1020.1
2017-01-28T07:34:57.937Z,1020.2
2017-01-28T07:36:00.729Z,1020.1
2017-01-28T07:37:04.028Z,1020.2
2017-01-28T07:38:06.987Z,1020.1
2017-01-28T07:39:09.938Z,1020.1
2017-01-28T07:41:16.305Z,1020.1
2017-01-28T07:42:19.255Z,1020.1
2017-01-28T07:44:25.115Z,1020.1
2017-01-28T07:46:31.482Z,1020
2017-01-28T07:47:34.433Z,1020
2017-01-28T07:48:37.396Z,1020.1
2017-01-28T07:49:40.877Z,1020.1
2017-01-28T07:50:43.658Z,1020
2017-01-28T07:51:46.611Z,1020
2017-01-28T07:52:50.071Z,1020
2017-01-28T07:53:53.020Z,1020
2017-01-28T07:55:58.887Z,1020.1
2017-01-28T07:57:02.337Z,1020
2017-01-28T07:58:05.293Z,1020.1
2017-01-28T07:59:08.078Z,1020
2017-01-28T08:00:11.534Z,1020
2017-01-28T08:01:14.490Z,1020
2017-01-28T08:02:17.475Z,1020
2017-01-28T08:03:20.425Z,1020
2017-01-28T08:05:26.813Z,1020
2017-01-28T08:06:29.769Z,1020
2017-01-28T08:07:32.721Z,1020.1
2017-01-28T08:08:35.726Z,1020.1
2017-01-28T08:09:39.017Z,1020
2017-01-28T08:10:42.326Z,1020
2017-01-28T08:15:57.416Z,1020
2017-01-28T08:17:00.705Z,1020
2017-01-28T08:18:03.488Z,1020
2017-01-28T08:19:06.459Z,1020
2017-01-28T08:20:09.746Z,1020
2017-01-28T08:21:12.700Z,1020
2017-01-28T08:22:16.163Z,1020
2017-01-28T08:24:22.031Z,1020
2017-01-28T08:25:25.011Z,1020
2017-01-28T08:26:28.474Z,1020
2017-01-28T08:30:40.657Z,1020
2017-01-28T08:31:43.609Z,1020
2017-01-28T08:35:55.992Z,1020
2017-01-28T08:36:58.947Z,1020
2017-01-28T08:38:01.903Z,1020.1
2017-01-28T08:39:05.191Z,1020
2017-01-28T08:40:08.163Z,1020.1
2017-01-28T08:41:11.285Z,1020.1
2017-01-28T08:44:20.598Z,1020.1
2017-01-28T08:45:23.549Z,1020.1
2017-01-28T08:46:27.013Z,1020.1
2017-01-28T08:47:29.965Z,1020.1
2017-01-28T08:48:32.918Z,1020.1
2017-01-28T08:49:35.870Z,1020.1
2017-01-28T08:50:39.327Z,1020.1
2017-01-28T08:51:42.278Z,1020.1
2017-01-28T08:52:45.228Z,1020.1
2017-01-28T08:54:51.590Z,1020.2
2017-01-28T08:55:54.378Z,1020.1
2017-01-28T08:56:57.842Z,1020.1
2017-01-28T08:59:03.705Z,1020.1
2017-01-28T09:00:06.825Z,1020
2017-01-28T09:01:10.125Z,1020.1
2017-01-28T09:02:13.078Z,1020
2017-01-28T09:03:16.032Z,1020.1
2017-01-28T09:04:19.487Z,1020
2017-01-28T09:05:22.266Z,1020.1
2017-01-28T09:06:25.218Z,1020.1
2017-01-28T09:07:28.672Z,1020.1
2017-01-28T09:08:31.628Z,1020.1
2017-01-28T09:09:34.587Z,1020.1
2017-01-28T09:11:40.951Z,1020.1
2017-01-28T09:12:43.907Z,1020.2
2017-01-28T09:13:46.863Z,1020.1
2017-01-28T09:14:50.317Z,1020.2
2017-01-28T09:15:53.271Z,1020.1
2017-01-28T09:16:56.056Z,1020.2
2017-01-28T09:17:59.517Z,1020.1
2017-01-28T09:19:02.473Z,1020.1
2017-01-28T09:20:05.425Z,1020.1
2017-01-28T09:21:08.548Z,1020
2017-01-28T09:22:11.505Z,1020
2017-01-28T09:23:14.626Z,1020
2017-01-28T09:24:18.084Z,1020
2017-01-28T09:25:21.072Z,1020
2017-01-28T09:26:23.856Z,1020
2017-01-28T09:27:27.314Z,1020
2017-01-28T09:28:30.263Z,1020
2017-01-28T09:29:33.218Z,1020
2017-01-28T09:30:36.170Z,1020
2017-01-28T09:31:39.626Z,1020
2017-01-28T09:32:42.602Z,1020
2017-01-28T09:33:45.553Z,1020.1
2017-01-28T09:34:48.507Z,1020
2017-01-28T09:35:51.973Z,1020.1
2017-01-28T09:36:54.758Z,1020.1
2017-01-28T09:37:58.214Z,1020.1
2017-01-28T09:39:01.169Z,1020.1
2017-01-28T09:40:04.121Z,1020.1
2017-01-28T09:41:07.421Z,1020.1
2017-01-28T09:42:10.373Z,1020.1
2017-01-28T09:43:13.664Z,1020.1
2017-01-28T09:44:16.621Z,1020.1
2017-01-28T09:45:19.573Z,1020.1
2017-01-28T09:46:22.865Z,1020
2017-01-28T09:47:25.818Z,1020.1
2017-01-28T09:48:28.778Z,1020
2017-01-28T09:49:31.731Z,1020.1
2017-01-28T09:50:35.187Z,1020.1
2017-01-28T09:51:38.136Z,1020.1
2017-01-28T09:52:41.085Z,1020.1
2017-01-28T09:53:44.542Z,1020
2017-01-28T09:54:47.498Z,1020.1
2017-01-28T09:55:50.287Z,1020.1
2017-01-28T09:56:53.741Z,1020
2017-01-28T09:58:59.605Z,1020.1
2017-01-28T10:00:03.088Z,1020.1
2017-01-28T10:01:06.046Z,1020.1
2017-01-28T10:02:08.829Z,1020.1
2017-01-28T10:03:12.120Z,1020.1
2017-01-28T10:04:15.113Z,1020.1
2017-01-28T10:05:18.062Z,1020.1
2017-01-28T10:06:21.523Z,1020.2
2017-01-28T10:07:24.645Z,1020.1
2017-01-28T10:08:27.600Z,1020.1
2017-01-28T10:09:30.580Z,1020.2
2017-01-28T10:10:33.535Z,1020.2
2017-01-28T10:11:36.994Z,1020.2
2017-01-28T10:13:42.853Z,1020.1
2017-01-28T10:14:46.309Z,1020
2017-01-28T10:15:49.264Z,1020
2017-01-28T10:16:52.218Z,1020
2017-01-28T10:17:55.173Z,1020
2017-01-28T10:18:58.629Z,1020
2017-01-28T10:20:01.587Z,1020
2017-01-28T10:21:04.542Z,1020
2017-01-28T10:22:07.492Z,1020
2017-01-28T10:23:10.946Z,1020
2017-01-28T10:24:13.897Z,1020
2017-01-28T10:25:16.847Z,1020
2017-01-28T10:26:20.301Z,1020.1
2017-01-28T10:27:23.255Z,1020
2017-01-28T10:28:26.219Z,1020
2017-01-28T10:29:29.175Z,1020
2017-01-28T10:30:32.631Z,1020
2017-01-28T10:31:35.588Z,1020
2017-01-28T10:32:38.544Z,1020
2017-01-28T10:33:41.503Z,1020.1
2017-01-28T10:34:44.960Z,1020.1
2017-01-28T10:35:47.913Z,1020
2017-01-28T10:37:54.157Z,1020
2017-01-28T10:38:57.119Z,1020
2017-01-28T10:40:00.074Z,1020
2017-01-28T10:41:03.536Z,1020
2017-01-28T10:42:06.490Z,1020.1
2017-01-28T10:43:09.440Z,1020
2017-01-28T10:44:12.733Z,1020
2017-01-28T10:45:15.688Z,1020.1
2017-01-28T10:46:18.641Z,1020
2017-01-28T10:47:22.097Z,1020
2017-01-28T10:48:25.049Z,1020
2017-01-28T10:49:27.999Z,1020
2017-01-28T10:50:31.454Z,1020
2017-01-28T10:51:34.428Z,1020
2017-01-28T10:52:37.218Z,1019.9
2017-01-28T10:53:40.707Z,1019.9
2017-01-28T10:54:43.659Z,1019.9
2017-01-28T10:55:46.615Z,1019.9
2017-01-28T10:56:50.075Z,1019.9
2017-01-28T10:57:53.029Z,1019.8
2017-01-28T10:58:55.984Z,1019.8
2017-01-28T10:59:58.937Z,1019.8
2017-01-28T11:01:02.397Z,1019.8
2017-01-28T11:02:05.347Z,1019.8
2017-01-28T11:03:08.638Z,1019.8
2017-01-28T11:04:11.423Z,1019.8
2017-01-28T11:05:14.376Z,1019.8
2017-01-28T11:06:17.832Z,1019.8
2017-01-28T11:07:20.623Z,1019.8
2017-01-28T11:08:23.908Z,1019.7
2017-01-28T11:09:26.858Z,1019.7
2017-01-28T11:10:30.318Z,1019.7
2017-01-28T11:11:33.265Z,1019.7
2017-01-28T11:12:36.220Z,1019.7
2017-01-28T11:13:39.200Z,1019.7
2017-01-28T11:15:45.561Z,1019.7
2017-01-28T11:16:48.850Z,1019.6
2017-01-28T11:17:51.799Z,1019.7
2017-01-28T11:18:54.755Z,1019.6
2017-01-28T11:19:58.226Z,1019.7
2017-01-28T11:21:01.179Z,1019.7
2017-01-28T11:22:04.130Z,1019.6
2017-01-28T11:23:07.080Z,1019.7
2017-01-28T11:24:10.543Z,1019.7
2017-01-28T11:25:13.328Z,1019.6
2017-01-28T11:26:16.815Z,1019.6
2017-01-28T11:27:19.771Z,1019.6
2017-01-28T11:28:22.721Z,1019.6
2017-01-28T11:29:26.006Z,1019.6
2017-01-28T11:31:32.370Z,1019.5
2017-01-28T11:32:35.323Z,1019.5
2017-01-28T11:33:38.276Z,1019.5
2017-01-28T11:34:41.232Z,1019.6
2017-01-28T11:35:44.517Z,1019.5
2017-01-28T11:36:47.466Z,1019.5
2017-01-28T11:37:50.928Z,1019.5
2017-01-28T11:38:53.711Z,1019.5
2017-01-28T11:39:57.166Z,1019.5
2017-01-28T11:41:00.142Z,1019.5
2017-01-28T11:42:03.100Z,1019.5
2017-01-28T11:43:06.052Z,1019.5
2017-01-28T11:44:09.532Z,1019.5
2017-01-28T11:45:12.485Z,1019.5
2017-01-28T11:46:15.767Z,1019.5
2017-01-28T11:47:18.715Z,1019.5
2017-01-28T11:48:22.007Z,1019.5
2017-01-28T11:49:24.960Z,1019.5
2017-01-28T11:50:27.911Z,1019.5
2017-01-28T11:51:31.370Z,1019.5
2017-01-28T11:52:34.324Z,1019.4
2017-01-28T11:53:37.160Z,1019.5
2017-01-28T11:54:40.616Z,1019.4
2017-01-28T11:55:43.448Z,1019.4
2017-01-28T11:56:46.907Z,1019.3
2017-01-28T11:57:49.860Z,1019.4
2017-01-28T11:58:52.811Z,1019.3
2017-01-28T11:59:55.761Z,1019.3
2017-01-28T12:02:02.133Z,1019.3
2017-01-28T12:03:05.090Z,1019.3
2017-01-28T12:04:08.549Z,1019.3
2017-01-28T12:05:11.501Z,1019.4
2017-01-28T12:06:14.458Z,1019.3
2017-01-28T12:07:17.917Z,1019.3
2017-01-28T12:08:20.869Z,1019.3
2017-01-28T12:09:23.819Z,1019.3
2017-01-28T12:10:27.272Z,1019.3
2017-01-28T12:11:30.226Z,1019.3
2017-01-28T12:12:33.512Z,1019.2
2017-01-28T12:13:36.460Z,1019.3
2017-01-28T12:14:39.745Z,1019.2
2017-01-28T12:15:42.697Z,1019.2
2017-01-28T12:16:45.646Z,1019.2
2017-01-28T12:17:49.102Z,1019.2
2017-01-28T12:18:52.058Z,1019.2
2017-01-28T12:19:55.039Z,1019.2
2017-01-28T12:20:57.992Z,1019.2
2017-01-28T12:22:01.447Z,1019.2
2017-01-28T12:23:04.409Z,1019.2
2017-01-28T12:24:07.356Z,1019.2
2017-01-28T12:26:13.896Z,1019.2
2017-01-28T12:27:16.851Z,1019.2
2017-01-28T12:28:19.801Z,1019.1
2017-01-28T12:29:23.258Z,1019.2
2017-01-28T12:30:26.210Z,1019.1
2017-01-28T12:31:29.497Z,1019.1
2017-01-28T12:32:32.449Z,1019.2
2017-01-28T12:33:35.398Z,1019.2
2017-01-28T12:34:38.855Z,1019.1
2017-01-28T12:35:41.806Z,1019.1
2017-01-28T12:36:44.760Z,1019.1
2017-01-28T12:37:48.216Z,1019.1
2017-01-28T12:38:50.998Z,1019.1
2017-01-28T12:39:54.456Z,1019.1
2017-01-28T12:40:57.412Z,1019.1
2017-01-28T12:42:00.363Z,1019.1
2017-01-28T12:43:03.647Z,1019.1
2017-01-28T12:44:06.603Z,1019.1
2017-01-28T12:45:10.059Z,1019.1
2017-01-28T12:46:12.847Z,1019.1
2017-01-28T12:47:16.303Z,1019.1
2017-01-28T12:48:19.263Z,1019.1
2017-01-28T12:49:22.216Z,1019.1
2017-01-28T12:50:25.170Z,1019.2
2017-01-28T12:51:28.625Z,1019.1
2017-01-28T12:52:31.579Z,1019.1
2017-01-28T12:53:34.876Z,1019.1
2017-01-28T12:54:37.838Z,1019.1
2017-01-28T12:55:40.790Z,1019.1
2017-01-28T12:56:44.241Z,1019.1
2017-01-28T12:57:47.194Z,1019.1
2017-01-28T12:58:50.147Z,1019.1
2017-01-28T12:59:53.434Z,1019.1
2017-01-28T13:00:56.386Z,1019
2017-01-28T13:01:59.846Z,1019.1
2017-01-28T13:03:02.805Z,1019
2017-01-28T13:05:09.162Z,1019
2017-01-28T13:06:12.116Z,1019.1
2017-01-28T13:07:15.068Z,1019.1
2017-01-28T13:08:18.525Z,1019.1
2017-01-28T13:09:21.338Z,1019.1
2017-01-28T13:10:24.828Z,1019.1
2017-01-28T13:11:27.617Z,1019.1
2017-01-28T13:12:31.067Z,1019.1
2017-01-28T13:13:34.021Z,1019.1
2017-01-28T13:14:36.973Z,1019
2017-01-28T13:16:43.341Z,1019
2017-01-28T13:17:46.296Z,1019
2017-01-28T13:18:49.761Z,1019
2017-01-28T13:19:52.548Z,1019
2017-01-28T13:20:56.006Z,1019
2017-01-28T13:21:58.964Z,1019.1
2017-01-28T13:23:01.919Z,1019.1
2017-01-28T13:24:05.378Z,1019.1
2017-01-28T13:25:08.161Z,1019
2017-01-28T13:26:11.618Z,1019
2017-01-28T13:27:14.569Z,1019
2017-01-28T13:28:17.853Z,1019
2017-01-28T13:29:20.809Z,1019
2017-01-28T13:30:23.766Z,1018.9
2017-01-28T13:31:27.222Z,1019
2017-01-28T13:32:30.175Z,1019
2017-01-28T13:33:33.129Z,1019
2017-01-28T13:34:36.585Z,1019
2017-01-28T13:35:39.536Z,1019
2017-01-28T13:36:42.486Z,1019
2017-01-28T13:37:45.945Z,1019
2017-01-28T13:38:48.923Z,1019
2017-01-28T13:39:52.212Z,1019
2017-01-28T13:40:55.186Z,1019.1
2017-01-28T13:41:58.136Z,1019
2017-01-28T13:43:01.593Z,1019
2017-01-28T13:44:04.552Z,1019
2017-01-28T13:45:07.504Z,1019
2017-01-28T13:46:10.796Z,1019.1
2017-01-28T13:47:13.583Z,1019
2017-01-28T13:48:16.869Z,1019
2017-01-28T13:49:19.826Z,1019
2017-01-28T13:50:23.280Z,1019
2017-01-28T13:51:26.235Z,1019
2017-01-28T13:52:29.694Z,1019
2017-01-28T13:53:32.646Z,1019
2017-01-28T13:54:35.599Z,1019
2017-01-28T13:55:38.886Z,1018.9
2017-01-28T13:56:41.840Z,1019
2017-01-28T13:57:45.295Z,1019
2017-01-28T13:58:48.247Z,1019
2017-01-28T13:59:51.196Z,1019
2017-01-28T14:00:54.656Z,1019.1
2017-01-28T14:01:57.608Z,1019.1
2017-01-28T14:03:00.557Z,1019.1
2017-01-28T14:04:03.538Z,1019.1
2017-01-28T14:05:06.823Z,1019
2017-01-28T14:06:10.275Z,1019
2017-01-28T14:07:13.223Z,1019.1
2017-01-28T14:08:16.172Z,1019
2017-01-28T14:09:19.456Z,1019.1
2017-01-28T14:11:25.661Z,1019
2017-01-28T14:12:28.610Z,1019.1
2017-01-28T14:13:32.066Z,1019
2017-01-28T14:14:35.019Z,1019.1
2017-01-28T14:15:38.001Z,1019.1
2017-01-28T14:16:41.458Z,1019.1
2017-01-28T14:17:44.406Z,1019.1
2017-01-28T14:18:47.360Z,1019.1
2017-01-28T14:19:50.813Z,1019.2
2017-01-28T14:20:53.597Z,1019.1
2017-01-28T14:22:59.966Z,1019.1
2017-01-28T14:24:02.923Z,1019.2
2017-01-28T14:25:06.210Z,1019.2
2017-01-28T14:26:09.157Z,1019.2